sensor_id;sensor_type;location;lat;lon;timestamp;P1;durP1;ratioP1;P2;durP2;ratioP2
75732;SDS011;64435;47.424;19.400;2023-02-10T00:01:37;41.33;;;16.48;;
75732;SDS011;64435;47.424;19.400;2023-02-10T00:04:03;40.10;;;16.93;;
75732;SDS011;64435;47.424;19.400;2023-02-10T00:06:29;43.75;;;16.58;;
75732;SDS011;64435;47.424;19.400;2023-02-10T00:08:58;32.20;;;16.30;;
75732;SDS011;64435;47.424;19.400;2023-02-10T00:11:25;31.30;;;12.35;;
75732;SDS011;64435;47.424;19.400;2023-02-10T00:14:10;29.50;;;11.38;;
75732;SDS011;64435;47.424;19.400;2023-02-10T00:16:39;33.03;;;11.50;;
75732;SDS011;64435;47.424;19.400;2023-02-10T00:19:05;24.92;;;10.57;;
75732;SDS011;64435;47.424;19.400;2023-02-10T00:21:30;27.93;;;12.33;;
75732;SDS011;64435;47.424;19.400;2023-02-10T00:23:56;28.75;;;11.55;;
75732;SDS011;64435;47.424;19.400;2023-02-10T00:26:22;25.60;;;10.57;;
75732;SDS011;64435;47.424;19.400;2023-02-10T00:28:47;26.00;;;10.33;;
75732;SDS011;64435;47.424;19.400;2023-02-10T00:31:14;28.53;;;11.27;;
75732;SDS011;64435;47.424;19.400;2023-02-10T00:33:40;27.75;;;11.70;;
75732;SDS011;64435;47.424;19.400;2023-02-10T00:36:10;37.55;;;13.45;;
75732;SDS011;64435;47.424;19.400;2023-02-10T00:38:37;32.58;;;15.10;;
75732;SDS011;64435;47.424;19.400;2023-02-10T00:41:11;29.10;;;12.32;;
75732;SDS011;64435;47.424;19.400;2023-02-10T00:43:38;31.20;;;12.80;;
75732;SDS011;64435;47.424;19.400;2023-02-10T00:46:05;29.98;;;12.02;;
75732;SDS011;64435;47.424;19.400;2023-02-10T00:48:30;31.55;;;11.63;;
75732;SDS011;64435;47.424;19.400;2023-02-10T00:50:56;34.03;;;11.53;;
75732;SDS011;64435;47.424;19.400;2023-02-10T00:53:21;22.85;;;10.40;;
75732;SDS011;64435;47.424;19.400;2023-02-10T00:55:47;22.30;;;10.70;;
75732;SDS011;64435;47.424;19.400;2023-02-10T00:58:12;25.23;;;10.83;;
75732;SDS011;64435;47.424;19.400;2023-02-10T01:00:38;28.27;;;11.50;;
75732;SDS011;64435;47.424;19.400;2023-02-10T01:03:03;24.77;;;9.70;;
75732;SDS011;64435;47.424;19.400;2023-02-10T01:05:28;20.63;;;9.83;;
75732;SDS011;64435;47.424;19.400;2023-02-10T01:07:54;18.23;;;8.33;;
75732;SDS011;64435;47.424;19.400;2023-02-10T01:10:20;18.33;;;7.70;;
75732;SDS011;64435;47.424;19.400;2023-02-10T01:12:46;18.73;;;7.90;;
75732;SDS011;64435;47.424;19.400;2023-02-10T01:15:11;27.80;;;8.93;;
75732;SDS011;64435;47.424;19.400;2023-02-10T01:17:37;22.95;;;9.25;;
75732;SDS011;64435;47.424;19.400;2023-02-10T01:20:03;20.53;;;7.77;;
75732;SDS011;64435;47.424;19.400;2023-02-10T01:22:31;22.02;;;8.70;;
75732;SDS011;64435;47.424;19.400;2023-02-10T01:24:57;19.08;;;8.07;;
75732;SDS011;64435;47.424;19.400;2023-02-10T01:27:22;28.23;;;9.97;;
75732;SDS011;64435;47.424;19.400;2023-02-10T01:29:48;21.73;;;9.27;;
75732;SDS011;64435;47.424;19.400;2023-02-10T01:32:13;17.63;;;8.23;;
75732;SDS011;64435;47.424;19.400;2023-02-10T01:34:39;19.23;;;8.83;;
75732;SDS011;64435;47.424;19.400;2023-02-10T01:37:04;18.65;;;8.82;;
75732;SDS011;64435;47.424;19.400;2023-02-10T01:39:29;21.80;;;9.13;;
75732;SDS011;64435;47.424;19.400;2023-02-10T01:41:55;20.83;;;9.13;;
75732;SDS011;64435;47.424;19.400;2023-02-10T01:46:46;21.23;;;9.07;;
75732;SDS011;64435;47.424;19.400;2023-02-10T01:49:16;22.42;;;9.35;;
75732;SDS011;64435;47.424;19.400;2023-02-10T01:54:14;26.25;;;11.02;;
75732;SDS011;64435;47.424;19.400;2023-02-10T01:56:42;24.60;;;9.60;;
75732;SDS011;64435;47.424;19.400;2023-02-10T01:59:07;19.70;;;9.03;;
75732;SDS011;64435;47.424;19.400;2023-02-10T02:01:33;21.83;;;8.87;;
75732;SDS011;64435;47.424;19.400;2023-02-10T02:03:58;28.13;;;11.00;;
75732;SDS011;64435;47.424;19.400;2023-02-10T02:06:25;24.77;;;8.68;;
75732;SDS011;64435;47.424;19.400;2023-02-10T02:08:50;25.33;;;10.30;;
75732;SDS011;64435;47.424;19.400;2023-02-10T02:16:59;22.90;;;9.57;;
75732;SDS011;64435;47.424;19.400;2023-02-10T02:28:12;29.00;;;10.30;;
75732;SDS011;64435;47.424;19.400;2023-02-10T02:30:45;22.67;;;10.93;;
75732;SDS011;64435;47.424;19.400;2023-02-10T02:35:39;23.67;;;11.67;;
75732;SDS011;64435;47.424;19.400;2023-02-10T02:38:08;40.25;;;14.40;;
75732;SDS011;64435;47.424;19.400;2023-02-10T02:40:33;38.13;;;13.80;;
75732;SDS011;64435;47.424;19.400;2023-02-10T02:42:58;43.92;;;16.92;;
75732;SDS011;64435;47.424;19.400;2023-02-10T02:45:33;75.73;;;21.87;;
75732;SDS011;64435;47.424;19.400;2023-02-10T02:48:11;39.53;;;14.65;;
75732;SDS011;64435;47.424;19.400;2023-02-10T02:53:42;21.00;;;9.07;;
75732;SDS011;64435;47.424;19.400;2023-02-10T02:58:53;21.30;;;8.45;;
75732;SDS011;64435;47.424;19.400;2023-02-10T03:01:23;27.80;;;10.60;;
75732;SDS011;64435;47.424;19.400;2023-02-10T03:03:54;29.67;;;11.80;;
75732;SDS011;64435;47.424;19.400;2023-02-10T03:06:20;26.48;;;10.93;;
75732;SDS011;64435;47.424;19.400;2023-02-10T03:08:45;24.83;;;10.93;;
75732;SDS011;64435;47.424;19.400;2023-02-10T03:11:11;16.33;;;7.45;;
75732;SDS011;64435;47.424;19.400;2023-02-10T03:13:36;18.53;;;9.47;;
75732;SDS011;64435;47.424;19.400;2023-02-10T03:16:02;21.80;;;7.93;;
75732;SDS011;64435;47.424;19.400;2023-02-10T03:18:28;28.15;;;9.80;;
75732;SDS011;64435;47.424;19.400;2023-02-10T03:20:53;25.00;;;8.87;;
75732;SDS011;64435;47.424;19.400;2023-02-10T03:23:19;30.12;;;12.30;;
75732;SDS011;64435;47.424;19.400;2023-02-10T03:25:45;23.10;;;10.03;;
75732;SDS011;64435;47.424;19.400;2023-02-10T03:28:10;28.92;;;11.23;;
75732;SDS011;64435;47.424;19.400;2023-02-10T03:30:36;29.57;;;10.40;;
75732;SDS011;64435;47.424;19.400;2023-02-10T03:33:02;28.58;;;11.12;;
75732;SDS011;64435;47.424;19.400;2023-02-10T03:35:28;34.40;;;12.33;;
75732;SDS011;64435;47.424;19.400;2023-02-10T03:37:53;27.00;;;11.17;;
75732;SDS011;64435;47.424;19.400;2023-02-10T03:40:18;40.12;;;14.02;;
75732;SDS011;64435;47.424;19.400;2023-02-10T03:42:44;26.53;;;12.80;;
75732;SDS011;64435;47.424;19.400;2023-02-10T03:45:09;29.70;;;12.53;;
75732;SDS011;64435;47.424;19.400;2023-02-10T03:47:35;26.63;;;11.17;;
75732;SDS011;64435;47.424;19.400;2023-02-10T03:50:00;30.12;;;12.90;;
75732;SDS011;64435;47.424;19.400;2023-02-10T03:52:25;27.50;;;13.10;;
75732;SDS011;64435;47.424;19.400;2023-02-10T03:54:51;26.77;;;11.43;;
75732;SDS011;64435;47.424;19.400;2023-02-10T03:57:16;26.87;;;10.97;;
75732;SDS011;64435;47.424;19.400;2023-02-10T03:59:43;33.50;;;14.25;;
75732;SDS011;64435;47.424;19.400;2023-02-10T04:02:09;34.53;;;13.60;;
75732;SDS011;64435;47.424;19.400;2023-02-10T04:04:34;26.27;;;9.90;;
75732;SDS011;64435;47.424;19.400;2023-02-10T04:07:00;32.77;;;12.37;;
75732;SDS011;64435;47.424;19.400;2023-02-10T04:09:27;32.45;;;12.50;;
75732;SDS011;64435;47.424;19.400;2023-02-10T04:11:53;27.10;;;11.17;;
75732;SDS011;64435;47.424;19.400;2023-02-10T04:14:18;30.40;;;12.13;;
75732;SDS011;64435;47.424;19.400;2023-02-10T04:16:44;32.03;;;12.77;;
75732;SDS011;64435;47.424;19.400;2023-02-10T04:19:09;27.10;;;11.93;;
75732;SDS011;64435;47.424;19.400;2023-02-10T04:21:35;32.25;;;11.40;;
75732;SDS011;64435;47.424;19.400;2023-02-10T04:24:00;26.10;;;11.00;;
75732;SDS011;64435;47.424;19.400;2023-02-10T04:26:26;29.53;;;12.13;;
75732;SDS011;64435;47.424;19.400;2023-02-10T04:28:51;27.77;;;10.67;;
75732;SDS011;64435;47.424;19.400;2023-02-10T04:31:16;30.65;;;12.52;;
75732;SDS011;64435;47.424;19.400;2023-02-10T04:33:42;31.67;;;13.23;;
75732;SDS011;64435;47.424;19.400;2023-02-10T04:36:08;29.25;;;12.20;;
75732;SDS011;64435;47.424;19.400;2023-02-10T04:38:33;25.60;;;12.07;;
75732;SDS011;64435;47.424;19.400;2023-02-10T04:40:59;31.23;;;12.53;;
75732;SDS011;64435;47.424;19.400;2023-02-10T04:43:24;31.95;;;11.20;;
75732;SDS011;64435;47.424;19.400;2023-02-10T04:45:50;27.03;;;10.70;;
75732;SDS011;64435;47.424;19.400;2023-02-10T04:48:15;37.73;;;12.17;;
75732;SDS011;64435;47.424;19.400;2023-02-10T04:50:41;31.37;;;12.10;;
75732;SDS011;64435;47.424;19.400;2023-02-10T04:53:07;24.65;;;9.90;;
75732;SDS011;64435;47.424;19.400;2023-02-10T04:55:33;29.00;;;11.12;;
75732;SDS011;64435;47.424;19.400;2023-02-10T04:57:59;32.97;;;12.95;;
75732;SDS011;64435;47.424;19.400;2023-02-10T05:00:24;29.80;;;12.80;;
75732;SDS011;64435;47.424;19.400;2023-02-10T05:02:50;33.40;;;13.93;;
75732;SDS011;64435;47.424;19.400;2023-02-10T05:05:15;27.23;;;12.63;;
75732;SDS011;64435;47.424;19.400;2023-02-10T05:07:41;32.23;;;14.07;;
75732;SDS011;64435;47.424;19.400;2023-02-10T05:10:06;35.93;;;16.37;;
75732;SDS011;64435;47.424;19.400;2023-02-10T05:12:32;26.55;;;12.70;;
75732;SDS011;64435;47.424;19.400;2023-02-10T05:14:57;22.00;;;11.57;;
75732;SDS011;64435;47.424;19.400;2023-02-10T05:17:22;30.13;;;12.90;;
75732;SDS011;64435;47.424;19.400;2023-02-10T05:19:48;36.70;;;13.07;;
75732;SDS011;64435;47.424;19.400;2023-02-10T05:22:13;30.73;;;13.73;;
75732;SDS011;64435;47.424;19.400;2023-02-10T05:24:39;32.45;;;13.62;;
75732;SDS011;64435;47.424;19.400;2023-02-10T05:27:04;27.40;;;13.33;;
75732;SDS011;64435;47.424;19.400;2023-02-10T05:29:29;36.27;;;14.50;;
75732;SDS011;64435;47.424;19.400;2023-02-10T05:31:55;26.20;;;11.20;;
75732;SDS011;64435;47.424;19.400;2023-02-10T05:34:20;28.70;;;10.45;;
75732;SDS011;64435;47.424;19.400;2023-02-10T05:36:46;40.67;;;13.10;;
75732;SDS011;64435;47.424;19.400;2023-02-10T05:39:11;24.33;;;10.90;;
75732;SDS011;64435;47.424;19.400;2023-02-10T05:41:53;27.65;;;11.85;;
75732;SDS011;64435;47.424;19.400;2023-02-10T05:44:19;26.00;;;11.50;;
75732;SDS011;64435;47.424;19.400;2023-02-10T05:46:45;30.27;;;11.10;;
75732;SDS011;64435;47.424;19.400;2023-02-10T05:49:10;22.53;;;9.73;;
75732;SDS011;64435;47.424;19.400;2023-02-10T05:51:36;26.13;;;10.37;;
75732;SDS011;64435;47.424;19.400;2023-02-10T05:54:01;29.57;;;10.10;;
75732;SDS011;64435;47.424;19.400;2023-02-10T05:56:27;22.10;;;10.40;;
75732;SDS011;64435;47.424;19.400;2023-02-10T05:58:52;22.77;;;10.93;;
75732;SDS011;64435;47.424;19.400;2023-02-10T06:01:17;21.60;;;9.43;;
75732;SDS011;64435;47.424;19.400;2023-02-10T06:03:43;23.87;;;10.33;;
75732;SDS011;64435;47.424;19.400;2023-02-10T06:06:09;21.62;;;9.57;;
75732;SDS011;64435;47.424;19.400;2023-02-10T06:08:34;26.03;;;10.03;;
75732;SDS011;64435;47.424;19.400;2023-02-10T06:11:00;22.50;;;10.97;;
75732;SDS011;64435;47.424;19.400;2023-02-10T06:13:25;21.00;;;9.20;;
75732;SDS011;64435;47.424;19.400;2023-02-10T06:15:50;26.80;;;11.10;;
75732;SDS011;64435;47.424;19.400;2023-02-10T06:18:16;25.57;;;10.30;;
75732;SDS011;64435;47.424;19.400;2023-02-10T06:20:41;27.60;;;12.80;;
75732;SDS011;64435;47.424;19.400;2023-02-10T06:23:07;25.87;;;10.23;;
75732;SDS011;64435;47.424;19.400;2023-02-10T06:25:32;30.63;;;12.77;;
75732;SDS011;64435;47.424;19.400;2023-02-10T06:27:58;27.60;;;13.40;;
75732;SDS011;64435;47.424;19.400;2023-02-10T06:30:23;32.70;;;14.97;;
75732;SDS011;64435;47.424;19.400;2023-02-10T06:32:50;68.75;;;25.23;;
75732;SDS011;64435;47.424;19.400;2023-02-10T06:35:15;63.93;;;26.13;;
75732;SDS011;64435;47.424;19.400;2023-02-10T06:37:41;72.77;;;28.33;;
75732;SDS011;64435;47.424;19.400;2023-02-10T06:40:06;60.43;;;26.10;;
75732;SDS011;64435;47.424;19.400;2023-02-10T06:42:32;56.63;;;25.90;;
75732;SDS011;64435;47.424;19.400;2023-02-10T06:44:57;53.87;;;23.67;;
75732;SDS011;64435;47.424;19.400;2023-02-10T06:47:23;50.20;;;21.93;;
75732;SDS011;64435;47.424;19.400;2023-02-10T06:49:48;58.53;;;23.05;;
75732;SDS011;64435;47.424;19.400;2023-02-10T06:52:14;42.70;;;18.70;;
75732;SDS011;64435;47.424;19.400;2023-02-10T06:54:40;57.15;;;21.85;;
75732;SDS011;64435;47.424;19.400;2023-02-10T06:57:06;56.40;;;23.80;;
75732;SDS011;64435;47.424;19.400;2023-02-10T06:59:32;63.38;;;22.67;;
75732;SDS011;64435;47.424;19.400;2023-02-10T07:01:58;55.78;;;24.37;;
75732;SDS011;64435;47.424;19.400;2023-02-10T07:04:28;67.73;;;26.90;;
75732;SDS011;64435;47.424;19.400;2023-02-10T07:06:54;66.18;;;26.77;;
75732;SDS011;64435;47.424;19.400;2023-02-10T07:09:20;65.90;;;28.15;;
75732;SDS011;64435;47.424;19.400;2023-02-10T07:11:45;57.07;;;24.13;;
75732;SDS011;64435;47.424;19.400;2023-02-10T07:14:12;57.47;;;25.73;;
75732;SDS011;64435;47.424;19.400;2023-02-10T07:16:37;44.67;;;20.37;;
75732;SDS011;64435;47.424;19.400;2023-02-10T07:19:03;36.83;;;15.57;;
75732;SDS011;64435;47.424;19.400;2023-02-10T07:21:28;33.33;;;13.77;;
75732;SDS011;64435;47.424;19.400;2023-02-10T07:23:54;45.07;;;18.17;;
75732;SDS011;64435;47.424;19.400;2023-02-10T07:26:19;39.83;;;18.43;;
75732;SDS011;64435;47.424;19.400;2023-02-10T07:28:45;47.80;;;21.30;;
75732;SDS011;64435;47.424;19.400;2023-02-10T07:31:10;44.28;;;18.25;;
75732;SDS011;64435;47.424;19.400;2023-02-10T07:33:36;52.97;;;20.70;;
75732;SDS011;64435;47.424;19.400;2023-02-10T07:36:02;44.95;;;21.12;;
75732;SDS011;64435;47.424;19.400;2023-02-10T07:38:29;38.50;;;15.55;;
75732;SDS011;64435;47.424;19.400;2023-02-10T07:40:55;28.33;;;13.88;;
75732;SDS011;64435;47.424;19.400;2023-02-10T07:43:21;24.10;;;10.77;;
75732;SDS011;64435;47.424;19.400;2023-02-10T07:45:46;37.83;;;17.87;;
75732;SDS011;64435;47.424;19.400;2023-02-10T07:48:11;45.53;;;21.83;;
75732;SDS011;64435;47.424;19.400;2023-02-10T07:50:37;43.43;;;17.80;;
75732;SDS011;64435;47.424;19.400;2023-02-10T07:53:02;47.57;;;18.57;;
75732;SDS011;64435;47.424;19.400;2023-02-10T07:55:28;29.50;;;14.43;;
75732;SDS011;64435;47.424;19.400;2023-02-10T07:57:53;26.57;;;12.37;;
75732;SDS011;64435;47.424;19.400;2023-02-10T08:00:19;35.57;;;17.07;;
75732;SDS011;64435;47.424;19.400;2023-02-10T08:02:44;35.07;;;15.07;;
75732;SDS011;64435;47.424;19.400;2023-02-10T08:05:10;21.57;;;9.60;;
75732;SDS011;64435;47.424;19.400;2023-02-10T08:07:36;41.00;;;17.40;;
75732;SDS011;64435;47.424;19.400;2023-02-10T08:10:02;38.08;;;16.37;;
75732;SDS011;64435;47.424;19.400;2023-02-10T08:12:27;37.17;;;16.60;;
75732;SDS011;64435;47.424;19.400;2023-02-10T08:14:53;39.57;;;16.50;;
75732;SDS011;64435;47.424;19.400;2023-02-10T08:17:18;44.40;;;18.15;;
75732;SDS011;64435;47.424;19.400;2023-02-10T08:19:43;38.77;;;17.23;;
75732;SDS011;64435;47.424;19.400;2023-02-10T08:22:09;43.80;;;18.10;;
75732;SDS011;64435;47.424;19.400;2023-02-10T08:24:34;21.50;;;9.83;;
75732;SDS011;64435;47.424;19.400;2023-02-10T08:27:00;42.80;;;18.00;;
75732;SDS011;64435;47.424;19.400;2023-02-10T08:29:25;35.90;;;14.47;;
75732;SDS011;64435;47.424;19.400;2023-02-10T08:31:51;28.57;;;12.87;;
75732;SDS011;64435;47.424;19.400;2023-02-10T08:34:17;48.28;;;20.00;;
75732;SDS011;64435;47.424;19.400;2023-02-10T08:36:45;60.40;;;24.35;;
75732;SDS011;64435;47.424;19.400;2023-02-10T08:39:11;45.70;;;22.07;;
75732;SDS011;64435;47.424;19.400;2023-02-10T08:41:37;56.50;;;22.90;;
75732;SDS011;64435;47.424;19.400;2023-02-10T08:44:02;38.83;;;18.17;;
75732;SDS011;64435;47.424;19.400;2023-02-10T08:46:28;51.20;;;22.95;;
75732;SDS011;64435;47.424;19.400;2023-02-10T08:48:54;57.70;;;23.97;;
75732;SDS011;64435;47.424;19.400;2023-02-10T08:51:19;58.50;;;27.07;;
75732;SDS011;64435;47.424;19.400;2023-02-10T08:53:44;61.77;;;26.57;;
75732;SDS011;64435;47.424;19.400;2023-02-10T08:56:12;64.65;;;27.98;;
75732;SDS011;64435;47.424;19.400;2023-02-10T08:58:39;65.50;;;27.73;;
75732;SDS011;64435;47.424;19.400;2023-02-10T09:01:12;73.10;;;30.00;;
75732;SDS011;64435;47.424;19.400;2023-02-10T09:03:39;59.03;;;26.75;;
75732;SDS011;64435;47.424;19.400;2023-02-10T09:06:05;63.40;;;31.80;;
75732;SDS011;64435;47.424;19.400;2023-02-10T09:08:30;50.90;;;22.47;;
75732;SDS011;64435;47.424;19.400;2023-02-10T09:10:56;49.33;;;21.23;;
75732;SDS011;64435;47.424;19.400;2023-02-10T09:13:23;43.80;;;19.58;;
75732;SDS011;64435;47.424;19.400;2023-02-10T09:15:48;40.60;;;18.52;;
75732;SDS011;64435;47.424;19.400;2023-02-10T09:18:14;44.70;;;19.13;;
75732;SDS011;64435;47.424;19.400;2023-02-10T09:20:39;42.50;;;19.50;;
75732;SDS011;64435;47.424;19.400;2023-02-10T09:23:05;38.90;;;18.70;;
75732;SDS011;64435;47.424;19.400;2023-02-10T09:25:30;39.50;;;19.35;;
75732;SDS011;64435;47.424;19.400;2023-02-10T09:27:56;37.70;;;16.73;;
75732;SDS011;64435;47.424;19.400;2023-02-10T09:30:23;41.10;;;18.50;;
75732;SDS011;64435;47.424;19.400;2023-02-10T09:32:49;42.92;;;19.55;;
75732;SDS011;64435;47.424;19.400;2023-02-10T09:35:15;39.45;;;18.85;;
75732;SDS011;64435;47.424;19.400;2023-02-10T09:37:40;39.67;;;19.10;;
75732;SDS011;64435;47.424;19.400;2023-02-10T09:40:06;39.57;;;19.40;;
75732;SDS011;64435;47.424;19.400;2023-02-10T09:45:15;41.78;;;20.20;;
75732;SDS011;64435;47.424;19.400;2023-02-10T09:50:26;41.67;;;19.75;;
75732;SDS011;64435;47.424;19.400;2023-02-10T09:55:55;33.65;;;15.48;;
75732;SDS011;64435;47.424;19.400;2023-02-10T09:58:30;34.75;;;17.62;;
75732;SDS011;64435;47.424;19.400;2023-02-10T10:00:58;41.60;;;18.43;;
75732;SDS011;64435;47.424;19.400;2023-02-10T10:03:34;38.78;;;18.12;;
75732;SDS011;64435;47.424;19.400;2023-02-10T10:06:12;30.95;;;15.80;;
75732;SDS011;64435;47.424;19.400;2023-02-10T10:14:35;38.40;;;17.17;;
75732;SDS011;64435;47.424;19.400;2023-02-10T10:17:20;41.00;;;19.27;;
75732;SDS011;64435;47.424;19.400;2023-02-10T10:27:33;34.53;;;16.30;;
75732;SDS011;64435;47.424;19.400;2023-02-10T10:30:19;33.22;;;16.65;;
75732;SDS011;64435;47.424;19.400;2023-02-10T10:32:54;30.77;;;15.90;;
75732;SDS011;64435;47.424;19.400;2023-02-10T10:35:35;29.52;;;14.87;;
75732;SDS011;64435;47.424;19.400;2023-02-10T10:38:09;26.25;;;12.77;;
75732;SDS011;64435;47.424;19.400;2023-02-10T10:40:37;31.08;;;15.48;;
75732;SDS011;64435;47.424;19.400;2023-02-10T10:43:08;25.15;;;13.75;;
75732;SDS011;64435;47.424;19.400;2023-02-10T10:45:39;24.13;;;12.80;;
75732;SDS011;64435;47.424;19.400;2023-02-10T10:48:09;34.15;;;15.23;;
75732;SDS011;64435;47.424;19.400;2023-02-10T10:50:49;31.85;;;15.63;;
75732;SDS011;64435;47.424;19.400;2023-02-10T10:53:15;30.33;;;14.30;;
75732;SDS011;64435;47.424;19.400;2023-02-10T10:55:44;29.20;;;13.00;;
75732;SDS011;64435;47.424;19.400;2023-02-10T10:58:33;26.87;;;14.57;;
75732;SDS011;64435;47.424;19.400;2023-02-10T11:01:02;25.17;;;11.93;;
75732;SDS011;64435;47.424;19.400;2023-02-10T11:03:29;25.67;;;14.00;;
75732;SDS011;64435;47.424;19.400;2023-02-10T11:05:59;31.95;;;15.65;;
75732;SDS011;64435;47.424;19.400;2023-02-10T11:08:28;30.33;;;14.70;;
75732;SDS011;64435;47.424;19.400;2023-02-10T11:10:56;23.27;;;11.63;;
75732;SDS011;64435;47.424;19.400;2023-02-10T11:13:23;29.83;;;14.35;;
75732;SDS011;64435;47.424;19.400;2023-02-10T11:16:02;29.00;;;14.73;;
75732;SDS011;64435;47.424;19.400;2023-02-10T11:18:35;26.37;;;13.57;;
75732;SDS011;64435;47.424;19.400;2023-02-10T11:21:03;24.75;;;12.68;;
75732;SDS011;64435;47.424;19.400;2023-02-10T11:23:30;29.95;;;15.90;;
75732;SDS011;64435;47.424;19.400;2023-02-10T11:25:57;27.93;;;14.97;;
75732;SDS011;64435;47.424;19.400;2023-02-10T11:28:32;30.33;;;16.58;;
75732;SDS011;64435;47.424;19.400;2023-02-10T11:31:02;30.35;;;16.73;;
75732;SDS011;64435;47.424;19.400;2023-02-10T11:33:30;29.40;;;15.43;;
75732;SDS011;64435;47.424;19.400;2023-02-10T11:36:08;34.28;;;18.40;;
75732;SDS011;64435;47.424;19.400;2023-02-10T11:38:34;36.60;;;18.83;;
75732;SDS011;64435;47.424;19.400;2023-02-10T11:41:01;35.97;;;17.87;;
75732;SDS011;64435;47.424;19.400;2023-02-10T11:43:40;37.83;;;17.98;;
75732;SDS011;64435;47.424;19.400;2023-02-10T11:46:07;37.53;;;18.07;;
75732;SDS011;64435;47.424;19.400;2023-02-10T11:48:53;35.15;;;18.77;;
75732;SDS011;64435;47.424;19.400;2023-02-10T11:51:19;33.38;;;18.65;;
75732;SDS011;64435;47.424;19.400;2023-02-10T11:53:44;36.10;;;19.47;;
75732;SDS011;64435;47.424;19.400;2023-02-10T11:59:22;34.10;;;17.92;;
75732;SDS011;64435;47.424;19.400;2023-02-10T12:01:58;32.88;;;16.60;;
75732;SDS011;64435;47.424;19.400;2023-02-10T12:10:14;29.33;;;15.05;;
75732;SDS011;64435;47.424;19.400;2023-02-10T12:13:15;28.12;;;15.25;;
75732;SDS011;64435;47.424;19.400;2023-02-10T12:23:51;32.90;;;16.27;;
75732;SDS011;64435;47.424;19.400;2023-02-10T12:38:15;25.67;;;13.40;;
75732;SDS011;64435;47.424;19.400;2023-02-10T12:40:27;26.62;;;13.57;;
75732;SDS011;64435;47.424;19.400;2023-02-10T12:43:31;25.75;;;13.32;;
75732;SDS011;64435;47.424;19.400;2023-02-10T12:46:11;22.35;;;12.27;;
75732;SDS011;64435;47.424;19.400;2023-02-10T12:49:06;28.25;;;12.48;;
75732;SDS011;64435;47.424;19.400;2023-02-10T12:54:30;23.38;;;11.32;;
75732;SDS011;64435;47.424;19.400;2023-02-10T12:56:59;20.75;;;11.70;;
75732;SDS011;64435;47.424;19.400;2023-02-10T12:59:29;24.63;;;12.55;;
75732;SDS011;64435;47.424;19.400;2023-02-10T13:02:00;23.95;;;12.05;;
75732;SDS011;64435;47.424;19.400;2023-02-10T13:04:31;20.33;;;10.73;;
75732;SDS011;64435;47.424;19.400;2023-02-10T13:06:59;23.15;;;12.13;;
75732;SDS011;64435;47.424;19.400;2023-02-10T13:14:29;19.55;;;10.35;;
75732;SDS011;64435;47.424;19.400;2023-02-10T13:16:55;20.63;;;10.80;;
75732;SDS011;64435;47.424;19.400;2023-02-10T13:24:49;19.05;;;9.75;;
75732;SDS011;64435;47.424;19.400;2023-02-10T13:33:22;19.33;;;10.40;;
75732;SDS011;64435;47.424;19.400;2023-02-10T13:35:52;20.30;;;10.93;;
75732;SDS011;64435;47.424;19.400;2023-02-10T13:38:19;18.95;;;10.32;;
75732;SDS011;64435;47.424;19.400;2023-02-10T13:40:53;19.20;;;11.17;;
75732;SDS011;64435;47.424;19.400;2023-02-10T13:43:43;20.42;;;10.98;;
75732;SDS011;64435;47.424;19.400;2023-02-10T13:46:18;21.77;;;10.25;;
75732;SDS011;64435;47.424;19.400;2023-02-10T13:48:50;22.10;;;9.77;;
75732;SDS011;64435;47.424;19.400;2023-02-10T13:51:28;18.90;;;10.25;;
75732;SDS011;64435;47.424;19.400;2023-02-10T13:53:55;20.33;;;10.63;;
75732;SDS011;64435;47.424;19.400;2023-02-10T14:04:29;21.95;;;10.35;;
75732;SDS011;64435;47.424;19.400;2023-02-10T14:09:49;21.65;;;9.82;;
75732;SDS011;64435;47.424;19.400;2023-02-10T14:12:26;17.87;;;9.02;;
75732;SDS011;64435;47.424;19.400;2023-02-10T14:14:52;23.17;;;10.90;;
75732;SDS011;64435;47.424;19.400;2023-02-10T14:17:22;26.55;;;10.88;;
75732;SDS011;64435;47.424;19.400;2023-02-10T14:19:53;24.80;;;10.80;;
75732;SDS011;64435;47.424;19.400;2023-02-10T14:24:54;28.67;;;11.70;;
75732;SDS011;64435;47.424;19.400;2023-02-10T14:27:23;29.77;;;13.02;;
75732;SDS011;64435;47.424;19.400;2023-02-10T14:29:53;29.63;;;13.10;;
75732;SDS011;64435;47.424;19.400;2023-02-10T14:32:21;23.75;;;10.13;;
75732;SDS011;64435;47.424;19.400;2023-02-10T14:34:54;22.37;;;9.30;;
75732;SDS011;64435;47.424;19.400;2023-02-10T14:37:21;22.85;;;9.38;;
75732;SDS011;64435;47.424;19.400;2023-02-10T14:39:57;19.25;;;9.35;;
75732;SDS011;64435;47.424;19.400;2023-02-10T14:42:24;22.50;;;10.10;;
75732;SDS011;64435;47.424;19.400;2023-02-10T14:44:52;26.25;;;11.12;;
75732;SDS011;64435;47.424;19.400;2023-02-10T14:47:38;24.25;;;10.95;;
75732;SDS011;64435;47.424;19.400;2023-02-10T14:50:06;21.67;;;10.13;;
75732;SDS011;64435;47.424;19.400;2023-02-10T14:52:33;25.63;;;10.17;;
75732;SDS011;64435;47.424;19.400;2023-02-10T14:55:00;21.67;;;9.93;;
75732;SDS011;64435;47.424;19.400;2023-02-10T14:57:27;30.17;;;10.77;;
75732;SDS011;64435;47.424;19.400;2023-02-10T14:59:57;27.30;;;11.43;;
75732;SDS011;64435;47.424;19.400;2023-02-10T15:02:28;25.23;;;11.30;;
75732;SDS011;64435;47.424;19.400;2023-02-10T15:04:55;21.37;;;10.60;;
75732;SDS011;64435;47.424;19.400;2023-02-10T15:07:24;25.92;;;11.20;;
75732;SDS011;64435;47.424;19.400;2023-02-10T15:09:58;24.23;;;10.13;;
75732;SDS011;64435;47.424;19.400;2023-02-10T15:12:37;22.07;;;10.30;;
75732;SDS011;64435;47.424;19.400;2023-02-10T15:17:41;26.08;;;11.88;;
75732;SDS011;64435;47.424;19.400;2023-02-10T15:33:30;25.62;;;11.57;;
75732;SDS011;64435;47.424;19.400;2023-02-10T15:36:09;29.63;;;11.80;;
75732;SDS011;64435;47.424;19.400;2023-02-10T15:42:28;29.63;;;12.50;;
75732;SDS011;64435;47.424;19.400;2023-02-10T15:49:40;41.37;;;18.30;;
75732;SDS011;64435;47.424;19.400;2023-02-10T15:52:13;36.30;;;17.50;;
75732;SDS011;64435;47.424;19.400;2023-02-10T15:54:43;37.80;;;17.40;;
75732;SDS011;64435;47.424;19.400;2023-02-10T15:57:09;38.33;;;17.83;;
75732;SDS011;64435;47.424;19.400;2023-02-10T15:59:35;39.03;;;18.27;;
75732;SDS011;64435;47.424;19.400;2023-02-10T16:02:01;43.93;;;18.47;;
75732;SDS011;64435;47.424;19.400;2023-02-10T16:04:28;38.67;;;18.67;;
75732;SDS011;64435;47.424;19.400;2023-02-10T16:06:57;43.60;;;19.40;;
75732;SDS011;64435;47.424;19.400;2023-02-10T16:09:23;46.67;;;19.23;;
75732;SDS011;64435;47.424;19.400;2023-02-10T16:11:49;49.33;;;18.70;;
75732;SDS011;64435;47.424;19.400;2023-02-10T16:14:14;33.57;;;15.67;;
75732;SDS011;64435;47.424;19.400;2023-02-10T16:16:44;39.10;;;17.53;;
75732;SDS011;64435;47.424;19.400;2023-02-10T16:19:11;37.83;;;16.60;;
75732;SDS011;64435;47.424;19.400;2023-02-10T16:21:38;46.50;;;18.48;;
75732;SDS011;64435;47.424;19.400;2023-02-10T16:24:04;47.80;;;17.63;;
75732;SDS011;64435;47.424;19.400;2023-02-10T16:26:29;46.15;;;19.15;;
75732;SDS011;64435;47.424;19.400;2023-02-10T16:28:55;40.40;;;18.40;;
75732;SDS011;64435;47.424;19.400;2023-02-10T16:31:21;40.53;;;18.62;;